sensor_id;sensor_type;location;lat;lon;timestamp;temperature;humidity
11489;DHT22;5801;50.804;12.638;2023-05-10T00:18:49;11.60;99.90
11489;DHT22;5801;50.804;12.638;2023-05-10T00:21:14;11.80;99.90
11489;DHT22;5801;50.804;12.638;2023-05-10T00:23:40;11.50;1.00
11489;DHT22;5801;50.804;12.638;2023-05-10T00:26:05;11.80;99.90
11489;DHT22;5801;50.804;12.638;2023-05-10T00:28:31;11.80;99.90
11489;DHT22;5801;50.804;12.638;2023-05-10T00:30:56;11.40;20.20
11489;DHT22;5801;50.804;12.638;2023-05-10T00:33:22;11.30;1.00
11489;DHT22;5801;50.804;12.638;2023-05-10T00:35:48;11.50;99.90
11489;DHT22;5801;50.804;12.638;2023-05-10T00:38:13;11.10;99.90
11489;DHT22;5801;50.804;12.638;2023-05-10T00:40:39;11.60;99.90
11489;DHT22;5801;50.804;12.638;2023-05-10T00:45:32;11.50;99.90
11489;DHT22;5801;50.804;12.638;2023-05-10T00:48:00;11.80;99.90
11489;DHT22;5801;50.804;12.638;2023-05-10T00:50:26;11.30;99.90
11489;DHT22;5801;50.804;12.638;2023-05-10T00:52:52;11.30;1.00
11489;DHT22;5801;50.804;12.638;2023-05-10T00:55:18;11.30;99.90
11489;DHT22;5801;50.804;12.638;2023-05-10T01:00:10;11.10;99.90
11489;DHT22;5801;50.804;12.638;2023-05-10T01:02:36;11.10;99.90
11489;DHT22;5801;50.804;12.638;2023-05-10T01:05:02;11.30;99.90
11489;DHT22;5801;50.804;12.638;2023-05-10T01:07:29;11.10;99.90
11489;DHT22;5801;50.804;12.638;2023-05-10T01:14:46;11.20;99.90
11489;DHT22;5801;50.804;12.638;2023-05-10T01:17:13;10.70;99.90
11489;DHT22;5801;50.804;12.638;2023-05-10T01:19:39;11.10;99.90
11489;DHT22;5801;50.804;12.638;2023-05-10T01:27:54;10.90;99.90
11489;DHT22;5801;50.804;12.638;2023-05-10T01:30:35;10.70;99.90
11489;DHT22;5801;50.804;12.638;2023-05-10T01:38:36;11.00;99.90
11489;DHT22;5801;50.804;12.638;2023-05-10T01:41:19;10.80;1.00
11489;DHT22;5801;50.804;12.638;2023-05-10T01:46:39;10.80;99.90
11489;DHT22;5801;50.804;12.638;2023-05-10T01:49:23;10.60;99.90
11489;DHT22;5801;50.804;12.638;2023-05-10T01:51:53;10.80;99.90
11489;DHT22;5801;50.804;12.638;2023-05-10T01:54:21;11.00;54.60
11489;DHT22;5801;50.804;12.638;2023-05-10T01:56:56;10.80;99.90
11489;DHT22;5801;50.804;12.638;2023-05-10T01:59:29;10.80;99.90
11489;DHT22;5801;50.804;12.638;2023-05-10T02:01:58;10.30;99.90
11489;DHT22;5801;50.804;12.638;2023-05-10T02:04:25;10.50;99.90
11489;DHT22;5801;50.804;12.638;2023-05-10T02:06:51;11.20;66.30
11489;DHT22;5801;50.804;12.638;2023-05-10T02:09:18;10.70;99.90
11489;DHT22;5801;50.804;12.638;2023-05-10T02:11:44;10.20;1.00
11489;DHT22;5801;50.804;12.638;2023-05-10T02:14:11;10.50;99.90
11489;DHT22;5801;50.804;12.638;2023-05-10T02:16:38;10.50;99.90
11489;DHT22;5801;50.804;12.638;2023-05-10T02:19:05;10.50;99.90
11489;DHT22;5801;50.804;12.638;2023-05-10T02:21:32;10.70;99.90
11489;DHT22;5801;50.804;12.638;2023-05-10T02:23:59;10.50;99.90
11489;DHT22;5801;50.804;12.638;2023-05-10T02:28:53;10.60;99.90
11489;DHT22;5801;50.804;12.638;2023-05-10T02:31:20;10.00;1.00
11489;DHT22;5801;50.804;12.638;2023-05-10T02:33:47;10.40;99.90
11489;DHT22;5801;50.804;12.638;2023-05-10T02:38:40;10.30;99.90
11489;DHT22;5801;50.804;12.638;2023-05-10T02:41:07;10.10;99.90
11489;DHT22;5801;50.804;12.638;2023-05-10T02:46:00;9.90;43.30
11489;DHT22;5801;50.804;12.638;2023-05-10T02:50:53;10.30;99.90
11489;DHT22;5801;50.804;12.638;2023-05-10T02:53:23;10.20;99.90
11489;DHT22;5801;50.804;12.638;2023-05-10T02:55:56;10.20;99.90
11489;DHT22;5801;50.804;12.638;2023-05-10T03:10:33;10.50;99.90
11489;DHT22;5801;50.804;12.638;2023-05-10T03:16:08;10.10;99.90
11489;DHT22;5801;50.804;12.638;2023-05-10T03:18:50;9.50;99.90
11489;DHT22;5801;50.804;12.638;2023-05-10T03:21:18;9.70;99.90
11489;DHT22;5801;50.804;12.638;2023-05-10T03:23:50;10.30;99.90
11489;DHT22;5801;50.804;12.638;2023-05-10T03:26:27;10.10;99.90
11489;DHT22;5801;50.804;12.638;2023-05-10T03:28:53;10.00;99.90
11489;DHT22;5801;50.804;12.638;2023-05-10T03:33:49;9.70;99.90
11489;DHT22;5801;50.804;12.638;2023-05-10T03:36:15;9.90;99.90
11489;DHT22;5801;50.804;12.638;2023-05-10T03:38:41;10.00;1.00
11489;DHT22;5801;50.804;12.638;2023-05-10T03:55:42;10.70;99.90
11489;DHT22;5801;50.804;12.638;2023-05-10T03:58:10;10.20;99.90
11489;DHT22;5801;50.804;12.638;2023-05-10T04:03:02;10.30;99.90
11489;DHT22;5801;50.804;12.638;2023-05-10T04:12:46;10.10;99.90
11489;DHT22;5801;50.804;12.638;2023-05-10T04:20:04;10.70;99.90
11489;DHT22;5801;50.804;12.638;2023-05-10T04:29:47;10.40;99.90
11489;DHT22;5801;50.804;12.638;2023-05-10T04:39:33;10.90;99.90
11489;DHT22;5801;50.804;12.638;2023-05-10T04:41:58;10.80;1.00
11489;DHT22;5801;50.804;12.638;2023-05-10T04:46:50;11.10;1.00
